Calumet, IA

08:14 PM CST del 18 Dicembre 2014 (GMT -0600)
Orange City Municipal | Change Station
CLOSE
Current Station
Aeroporto
Location: Orange City,
Altitudine: 1414 ft
Stazioni meteo nelle vicinanze

Alt. 1414 ft 42.99 °N, 96.06 °W | Updated 19 minutes ago

Coperto
Coperto
28 °F
Sembra 28 °F
N
0
Vento Variabile Vento da Nord

Oggi
Massima -- | Minima -- °F
--% Possibilità di precip.
Ieri
Massima -- | Minima -- °F
Precip. -- in
7:48 AM 4:49 PM
Luna calante, 11% visible
Pressione 30.19 in
Visibilità 10.0 miglia
Nuvole Coperto 1400 ft
Punto di rugiada 23 °F
Umidità 80%
Piovosità 0.00 in
Spessore del manto nevoso Non disponibile.
Raggi UV 0 fuori da 12
Polline .10 fuori da 12
Qualità dell'aria Non disponibile.
Flu Activity Non disponibile.
METAR KORC 190155Z AUTO 00000KT 10SM OVC014 M02/M05 A3019 RMK AO2

More Conditions Fewer Conditions

Pressione 30.19 in
Visibilità 10.0 miglia
Nuvole Coperto 1400 ft
Punto di rugiada 23 °F
Umidità 80%
Piovosità 0.00 in
Spessore del manto nevoso Non disponibile.
Raggi UV 0 fuori da 12
Polline .10 fuori da 12
Qualità dell'aria Non disponibile.
Flu Activity Non disponibile.
METAR KORC 190155Z AUTO 00000KT 10SM OVC014 M02/M05 A3019 RMK AO2

More Conditions Fewer Conditions

10-Day Weather Forecast

Almanac

Astronomia

Dec. 18, 2014 Alba Tramonto
Ora attuale
Crepuscolo civile
Crepuscolo nautico
Crepuscolo astronomico
Luna
Estensione della luce visibile
Lunghezza del giorno
Tomorrow will be .
, % of the Moon is Illuminated

Gli estremi di oggi

State Highs State Lows

Community

WunderPhotos

Upload Photos

1,779,036 foto caricate!

WunderBlogs® & News

Nearby

Qualità dell'aria

  Qualità dell'aria Indice AQ Inquinante
Not available.

Profondità neve

Stazione Profondità Altitudine

Attività sismica

Città  Distanza Mag. Data & Ora
Minimo Magnitudo Mostrato è 2.5.

Temperature delle acque costiere

Località Temperatura

Stazioni meteo nelle vicinanze